sensor_id;sensor_type;location;lat;lon;timestamp;temperature;humidity
42019;DHT22;27703;51.980;5.848;2023-02-28T00:00:50;3.20;99.90
42019;DHT22;27703;51.980;5.848;2023-02-28T00:03:16;3.20;99.90
42019;DHT22;27703;51.980;5.848;2023-02-28T00:05:42;3.30;99.90
42019;DHT22;27703;51.980;5.848;2023-02-28T00:08:08;3.30;99.90
42019;DHT22;27703;51.980;5.848;2023-02-28T00:10:34;3.30;99.90
42019;DHT22;27703;51.980;5.848;2023-02-28T00:13:04;3.30;99.90
42019;DHT22;27703;51.980;5.848;2023-02-28T00:15:31;3.40;99.90
42019;DHT22;27703;51.980;5.848;2023-02-28T00:17:56;3.40;99.90
42019;DHT22;27703;51.980;5.848;2023-02-28T00:20:23;3.40;99.90
42019;DHT22;27703;51.980;5.848;2023-02-28T00:22:51;3.40;99.90
42019;DHT22;27703;51.980;5.848;2023-02-28T00:25:20;3.50;99.90
42019;DHT22;27703;51.980;5.848;2023-02-28T00:27:46;3.50;99.90
42019;DHT22;27703;51.980;5.848;2023-02-28T00:30:14;3.50;99.90
42019;DHT22;27703;51.980;5.848;2023-02-28T00:32:41;3.50;99.90
42019;DHT22;27703;51.980;5.848;2023-02-28T00:35:08;3.50;99.90
42019;DHT22;27703;51.980;5.848;2023-02-28T00:37:34;3.50;99.90
42019;DHT22;27703;51.980;5.848;2023-02-28T00:39:59;3.60;99.90
42019;DHT22;27703;51.980;5.848;2023-02-28T00:42:25;3.60;99.90
42019;DHT22;27703;51.980;5.848;2023-02-28T00:44:51;3.50;99.90
42019;DHT22;27703;51.980;5.848;2023-02-28T00:47:16;3.60;99.90
42019;DHT22;27703;51.980;5.848;2023-02-28T00:49:42;3.60;99.90
42019;DHT22;27703;51.980;5.848;2023-02-28T00:52:08;3.70;99.90
42019;DHT22;27703;51.980;5.848;2023-02-28T00:54:33;3.70;99.90
42019;DHT22;27703;51.980;5.848;2023-02-28T00:56:59;3.70;99.90
42019;DHT22;27703;51.980;5.848;2023-02-28T00:59:25;3.70;99.90
42019;DHT22;27703;51.980;5.848;2023-02-28T01:01:50;3.70;99.90
42019;DHT22;27703;51.980;5.848;2023-02-28T01:04:16;3.70;99.90
42019;DHT22;27703;51.980;5.848;2023-02-28T01:06:42;3.70;99.90
42019;DHT22;27703;51.980;5.848;2023-02-28T01:09:08;3.70;99.90
42019;DHT22;27703;51.980;5.848;2023-02-28T01:11:34;3.70;99.90
42019;DHT22;27703;51.980;5.848;2023-02-28T01:14:00;3.70;99.90
42019;DHT22;27703;51.980;5.848;2023-02-28T01:16:26;3.70;99.90
42019;DHT22;27703;51.980;5.848;2023-02-28T01:18:51;3.70;99.90
42019;DHT22;27703;51.980;5.848;2023-02-28T01:21:19;3.80;99.90
42019;DHT22;27703;51.980;5.848;2023-02-28T01:23:45;3.70;99.90
42019;DHT22;27703;51.980;5.848;2023-02-28T01:26:17;3.70;99.90
42019;DHT22;27703;51.980;5.848;2023-02-28T01:28:43;3.70;99.90
42019;DHT22;27703;51.980;5.848;2023-02-28T01:31:09;3.70;99.90
42019;DHT22;27703;51.980;5.848;2023-02-28T01:33:35;3.70;99.90
42019;DHT22;27703;51.980;5.848;2023-02-28T01:36:04;3.70;99.90
42019;DHT22;27703;51.980;5.848;2023-02-28T01:38:29;3.70;99.90
42019;DHT22;27703;51.980;5.848;2023-02-28T01:40:55;3.70;99.90
42019;DHT22;27703;51.980;5.848;2023-02-28T01:43:25;3.70;99.90
42019;DHT22;27703;51.980;5.848;2023-02-28T01:45:52;3.70;99.90
42019;DHT22;27703;51.980;5.848;2023-02-28T01:48:19;3.60;99.90
42019;DHT22;27703;51.980;5.848;2023-02-28T01:50:47;3.70;99.90
42019;DHT22;27703;51.980;5.848;2023-02-28T01:53:18;3.70;99.90
42019;DHT22;27703;51.980;5.848;2023-02-28T01:55:47;3.70;99.90
42019;DHT22;27703;51.980;5.848;2023-02-28T01:58:14;3.70;99.90
42019;DHT22;27703;51.980;5.848;2023-02-28T02:00:40;3.70;99.90
42019;DHT22;27703;51.980;5.848;2023-02-28T02:03:13;3.70;99.90
42019;DHT22;27703;51.980;5.848;2023-02-28T02:05:40;3.70;99.90
42019;DHT22;27703;51.980;5.848;2023-02-28T02:08:17;3.70;99.90
42019;DHT22;27703;51.980;5.848;2023-02-28T02:10:50;3.70;99.90
42019;DHT22;27703;51.980;5.848;2023-02-28T02:14:21;3.70;99.90
42019;DHT22;27703;51.980;5.848;2023-02-28T02:22:28;3.60;99.90
42019;DHT22;27703;51.980;5.848;2023-02-28T02:25:06;3.60;99.90
42019;DHT22;27703;51.980;5.848;2023-02-28T02:27:58;3.60;99.90
42019;DHT22;27703;51.980;5.848;2023-02-28T02:36:10;3.60;99.90
42019;DHT22;27703;51.980;5.848;2023-02-28T02:39:06;3.60;99.90
42019;DHT22;27703;51.980;5.848;2023-02-28T02:41:46;3.60;99.90
42019;DHT22;27703;51.980;5.848;2023-02-28T02:46:57;3.60;99.90
42019;DHT22;27703;51.980;5.848;2023-02-28T02:49:28;3.60;99.90
42019;DHT22;27703;51.980;5.848;2023-02-28T02:51:58;3.60;99.90
42019;DHT22;27703;51.980;5.848;2023-02-28T02:54:30;3.60;99.90
42019;DHT22;27703;51.980;5.848;2023-02-28T02:56:59;3.60;99.90
42019;DHT22;27703;51.980;5.848;2023-02-28T02:59:27;3.60;99.90
42019;DHT22;27703;51.980;5.848;2023-02-28T03:01:57;3.70;99.90
42019;DHT22;27703;51.980;5.848;2023-02-28T03:04:25;3.60;99.90
42019;DHT22;27703;51.980;5.848;2023-02-28T03:06:53;3.70;99.90
42019;DHT22;27703;51.980;5.848;2023-02-28T03:09:20;3.70;99.90
42019;DHT22;27703;51.980;5.848;2023-02-28T03:11:47;3.70;99.90
42019;DHT22;27703;51.980;5.848;2023-02-28T03:14:38;3.70;99.90
42019;DHT22;27703;51.980;5.848;2023-02-28T03:19:58;3.60;99.90
42019;DHT22;27703;51.980;5.848;2023-02-28T03:31:26;3.70;99.90
42019;DHT22;27703;51.980;5.848;2023-02-28T03:34:01;3.70;99.90
42019;DHT22;27703;51.980;5.848;2023-02-28T03:36:49;3.70;99.90
42019;DHT22;27703;51.980;5.848;2023-02-28T03:39:37;3.60;99.90
42019;DHT22;27703;51.980;5.848;2023-02-28T03:42:09;3.70;99.90
42019;DHT22;27703;51.980;5.848;2023-02-28T03:44:38;3.70;99.90
42019;DHT22;27703;51.980;5.848;2023-02-28T03:50:27;3.60;99.90
42019;DHT22;27703;51.980;5.848;2023-02-28T03:52:58;3.60;99.90
42019;DHT22;27703;51.980;5.848;2023-02-28T03:55:32;3.60;99.90
42019;DHT22;27703;51.980;5.848;2023-02-28T04:01:11;3.60;99.90
42019;DHT22;27703;51.980;5.848;2023-02-28T04:03:38;3.50;99.90
42019;DHT22;27703;51.980;5.848;2023-02-28T04:06:07;3.60;99.90
42019;DHT22;27703;51.980;5.848;2023-02-28T04:08:33;3.60;99.90
42019;DHT22;27703;51.980;5.848;2023-02-28T04:11:14;3.60;99.90
42019;DHT22;27703;51.980;5.848;2023-02-28T04:13:41;3.60;99.90
42019;DHT22;27703;51.980;5.848;2023-02-28T04:16:08;3.60;99.90
42019;DHT22;27703;51.980;5.848;2023-02-28T04:18:38;3.60;99.90
42019;DHT22;27703;51.980;5.848;2023-02-28T04:21:04;3.60;99.90
42019;DHT22;27703;51.980;5.848;2023-02-28T04:23:30;3.60;99.90
42019;DHT22;27703;51.980;5.848;2023-02-28T04:25:56;3.60;99.90
42019;DHT22;27703;51.980;5.848;2023-02-28T04:28:22;3.60;99.90
42019;DHT22;27703;51.980;5.848;2023-02-28T04:30:47;3.60;99.90
42019;DHT22;27703;51.980;5.848;2023-02-28T04:33:13;3.60;99.90
42019;DHT22;27703;51.980;5.848;2023-02-28T04:35:38;3.60;99.90
42019;DHT22;27703;51.980;5.848;2023-02-28T04:38:04;3.60;99.90
42019;DHT22;27703;51.980;5.848;2023-02-28T04:40:29;3.60;99.90
42019;DHT22;27703;51.980;5.848;2023-02-28T04:42:55;3.50;99.90
42019;DHT22;27703;51.980;5.848;2023-02-28T04:45:21;3.50;99.90
42019;DHT22;27703;51.980;5.848;2023-02-28T04:47:46;3.50;99.90
42019;DHT22;27703;51.980;5.848;2023-02-28T04:50:12;3.40;99.90
42019;DHT22;27703;51.980;5.848;2023-02-28T04:52:37;3.40;99.90
42019;DHT22;27703;51.980;5.848;2023-02-28T04:55:03;3.40;99.90
42019;DHT22;27703;51.980;5.848;2023-02-28T04:57:28;3.40;99.90
42019;DHT22;27703;51.980;5.848;2023-02-28T04:59:55;3.40;99.90
42019;DHT22;27703;51.980;5.848;2023-02-28T05:02:20;3.30;99.90
42019;DHT22;27703;51.980;5.848;2023-02-28T05:04:46;3.30;99.90
42019;DHT22;27703;51.980;5.848;2023-02-28T05:07:11;3.30;99.90
42019;DHT22;27703;51.980;5.848;2023-02-28T05:09:37;3.30;99.90
42019;DHT22;27703;51.980;5.848;2023-02-28T05:12:02;3.30;99.90
42019;DHT22;27703;51.980;5.848;2023-02-28T05:14:28;3.30;99.90
42019;DHT22;27703;51.980;5.848;2023-02-28T05:16:54;3.20;99.90
42019;DHT22;27703;51.980;5.848;2023-02-28T05:19:20;3.20;99.90
42019;DHT22;27703;51.980;5.848;2023-02-28T05:21:54;3.20;99.90
42019;DHT22;27703;51.980;5.848;2023-02-28T05:24:20;3.30;99.90
42019;DHT22;27703;51.980;5.848;2023-02-28T05:26:49;3.20;99.90
42019;DHT22;27703;51.980;5.848;2023-02-28T05:29:16;3.20;99.90
42019;DHT22;27703;51.980;5.848;2023-02-28T05:31:41;3.20;99.90
42019;DHT22;27703;51.980;5.848;2023-02-28T05:34:07;3.20;99.90
42019;DHT22;27703;51.980;5.848;2023-02-28T05:36:33;3.20;99.90
42019;DHT22;27703;51.980;5.848;2023-02-28T05:38:59;3.20;99.90
42019;DHT22;27703;51.980;5.848;2023-02-28T05:41:24;3.20;99.90
42019;DHT22;27703;51.980;5.848;2023-02-28T05:43:51;3.20;99.90
42019;DHT22;27703;51.980;5.848;2023-02-28T05:46:17;3.20;99.90
42019;DHT22;27703;51.980;5.848;2023-02-28T05:48:46;3.20;99.90
42019;DHT22;27703;51.980;5.848;2023-02-28T05:51:12;3.20;99.90
42019;DHT22;27703;51.980;5.848;2023-02-28T05:53:37;3.20;99.90
42019;DHT22;27703;51.980;5.848;2023-02-28T05:56:03;3.10;99.90
42019;DHT22;27703;51.980;5.848;2023-02-28T05:58:29;3.10;99.90
42019;DHT22;27703;51.980;5.848;2023-02-28T06:00:59;3.10;99.90
42019;DHT22;27703;51.980;5.848;2023-02-28T06:03:25;3.10;99.90
42019;DHT22;27703;51.980;5.848;2023-02-28T06:05:51;3.10;99.90
42019;DHT22;27703;51.980;5.848;2023-02-28T06:08:16;3.20;99.90
42019;DHT22;27703;51.980;5.848;2023-02-28T06:10:42;3.20;99.90
42019;DHT22;27703;51.980;5.848;2023-02-28T06:13:08;3.20;99.90
42019;DHT22;27703;51.980;5.848;2023-02-28T06:15:34;3.20;99.90
42019;DHT22;27703;51.980;5.848;2023-02-28T06:18:00;3.20;99.90
42019;DHT22;27703;51.980;5.848;2023-02-28T06:20:26;3.20;99.90
42019;DHT22;27703;51.980;5.848;2023-02-28T06:22:56;3.20;99.90
42019;DHT22;27703;51.980;5.848;2023-02-28T06:25:24;3.20;99.90
42019;DHT22;27703;51.980;5.848;2023-02-28T06:27:49;3.20;99.90
42019;DHT22;27703;51.980;5.848;2023-02-28T06:30:15;3.20;99.90
42019;DHT22;27703;51.980;5.848;2023-02-28T06:32:40;3.20;99.90
42019;DHT22;27703;51.980;5.848;2023-02-28T06:35:06;3.30;99.90
42019;DHT22;27703;51.980;5.848;2023-02-28T06:37:32;3.30;99.90
42019;DHT22;27703;51.980;5.848;2023-02-28T06:39:58;3.20;99.90
42019;DHT22;27703;51.980;5.848;2023-02-28T06:42:24;3.20;99.90
42019;DHT22;27703;51.980;5.848;2023-02-28T06:44:55;3.30;99.90
42019;DHT22;27703;51.980;5.848;2023-02-28T06:47:21;3.30;99.90
42019;DHT22;27703;51.980;5.848;2023-02-28T06:49:47;3.40;99.90
42019;DHT22;27703;51.980;5.848;2023-02-28T06:52:13;3.40;99.90
42019;DHT22;27703;51.980;5.848;2023-02-28T06:54:39;3.40;99.90
42019;DHT22;27703;51.980;5.848;2023-02-28T06:57:04;3.40;99.90
42019;DHT22;27703;51.980;5.848;2023-02-28T06:59:30;3.50;99.90
42019;DHT22;27703;51.980;5.848;2023-02-28T07:01:56;3.50;99.90
42019;DHT22;27703;51.980;5.848;2023-02-28T07:04:21;3.50;99.90
42019;DHT22;27703;51.980;5.848;2023-02-28T07:06:47;3.50;99.90
42019;DHT22;27703;51.980;5.848;2023-02-28T07:09:13;3.50;99.90
42019;DHT22;27703;51.980;5.848;2023-02-28T07:11:40;3.60;99.90
42019;DHT22;27703;51.980;5.848;2023-02-28T07:14:06;3.60;99.90
42019;DHT22;27703;51.980;5.848;2023-02-28T07:16:32;3.60;99.90
42019;DHT22;27703;51.980;5.848;2023-02-28T07:18:58;3.60;99.90
42019;DHT22;27703;51.980;5.848;2023-02-28T07:21:24;3.70;99.90
42019;DHT22;27703;51.980;5.848;2023-02-28T07:23:50;3.70;99.90
42019;DHT22;27703;51.980;5.848;2023-02-28T07:26:17;3.70;99.90
42019;DHT22;27703;51.980;5.848;2023-02-28T07:28:45;3.70;99.90
42019;DHT22;27703;51.980;5.848;2023-02-28T07:31:12;3.70;99.90
42019;DHT22;27703;51.980;5.848;2023-02-28T07:33:39;3.70;99.90
42019;DHT22;27703;51.980;5.848;2023-02-28T07:36:07;3.70;99.90
42019;DHT22;27703;51.980;5.848;2023-02-28T07:38:36;3.70;99.90
42019;DHT22;27703;51.980;5.848;2023-02-28T07:41:03;3.80;99.90
42019;DHT22;27703;51.980;5.848;2023-02-28T07:43:33;3.80;99.90
42019;DHT22;27703;51.980;5.848;2023-02-28T07:46:04;3.80;99.90
42019;DHT22;27703;51.980;5.848;2023-02-28T07:48:29;3.80;99.90
42019;DHT22;27703;51.980;5.848;2023-02-28T07:50:56;3.80;99.90
42019;DHT22;27703;51.980;5.848;2023-02-28T07:53:21;3.90;99.90
42019;DHT22;27703;51.980;5.848;2023-02-28T07:55:47;4.00;99.90
42019;DHT22;27703;51.980;5.848;2023-02-28T07:58:13;4.00;99.90
42019;DHT22;27703;51.980;5.848;2023-02-28T08:00:38;4.10;99.90
42019;DHT22;27703;51.980;5.848;2023-02-28T08:03:04;4.20;99.90
42019;DHT22;27703;51.980;5.848;2023-02-28T08:05:29;4.30;99.90
42019;DHT22;27703;51.980;5.848;2023-02-28T08:07:56;4.30;99.90
42019;DHT22;27703;51.980;5.848;2023-02-28T08:10:22;4.40;99.90
42019;DHT22;27703;51.980;5.848;2023-02-28T08:12:47;4.40;99.90
42019;DHT22;27703;51.980;5.848;2023-02-28T08:15:13;4.40;99.90
42019;DHT22;27703;51.980;5.848;2023-02-28T08:17:38;4.50;99.90
42019;DHT22;27703;51.980;5.848;2023-02-28T08:20:04;4.60;99.90
42019;DHT22;27703;51.980;5.848;2023-02-28T08:22:30;4.60;99.90
42019;DHT22;27703;51.980;5.848;2023-02-28T08:24:56;4.60;99.90
42019;DHT22;27703;51.980;5.848;2023-02-28T08:27:21;4.60;99.80
42019;DHT22;27703;51.980;5.848;2023-02-28T08:29:47;4.60;99.60
42019;DHT22;27703;51.980;5.848;2023-02-28T08:32:12;4.60;99.30
42019;DHT22;27703;51.980;5.848;2023-02-28T08:34:39;4.70;99.80
42019;DHT22;27703;51.980;5.848;2023-02-28T08:37:06;4.70;99.60
42019;DHT22;27703;51.980;5.848;2023-02-28T08:39:34;4.80;99.70
42019;DHT22;27703;51.980;5.848;2023-02-28T08:42:01;4.90;99.00
42019;DHT22;27703;51.980;5.848;2023-02-28T08:44:26;4.90;99.20
42019;DHT22;27703;51.980;5.848;2023-02-28T08:46:52;5.00;99.10
42019;DHT22;27703;51.980;5.848;2023-02-28T08:49:18;5.10;98.80
42019;DHT22;27703;51.980;5.848;2023-02-28T08:51:44;5.10;98.60
42019;DHT22;27703;51.980;5.848;2023-02-28T08:54:09;5.20;97.80
42019;DHT22;27703;51.980;5.848;2023-02-28T08:56:38;5.20;97.50
42019;DHT22;27703;51.980;5.848;2023-02-28T08:59:03;5.20;97.80
42019;DHT22;27703;51.980;5.848;2023-02-28T09:01:29;5.30;97.80
42019;DHT22;27703;51.980;5.848;2023-02-28T09:03:57;5.40;97.70
42019;DHT22;27703;51.980;5.848;2023-02-28T09:06:25;5.40;96.50
42019;DHT22;27703;51.980;5.848;2023-02-28T09:08:51;5.40;96.50
42019;DHT22;27703;51.980;5.848;2023-02-28T09:11:18;5.50;97.00
42019;DHT22;27703;51.980;5.848;2023-02-28T09:13:44;5.60;96.40
42019;DHT22;27703;51.980;5.848;2023-02-28T09:16:13;5.60;95.90
42019;DHT22;27703;51.980;5.848;2023-02-28T09:18:39;5.70;95.30
42019;DHT22;27703;51.980;5.848;2023-02-28T09:21:06;5.70;94.90
42019;DHT22;27703;51.980;5.848;2023-02-28T09:23:32;5.70;94.60
42019;DHT22;27703;51.980;5.848;2023-02-28T09:25:58;5.70;94.80
42019;DHT22;27703;51.980;5.848;2023-02-28T09:28:23;5.80;94.10
42019;DHT22;27703;51.980;5.848;2023-02-28T09:30:51;5.80;93.60
42019;DHT22;27703;51.980;5.848;2023-02-28T09:33:18;5.80;93.00
42019;DHT22;27703;51.980;5.848;2023-02-28T09:35:49;5.80;93.20
42019;DHT22;27703;51.980;5.848;2023-02-28T09:38:15;5.90;92.90
42019;DHT22;27703;51.980;5.848;2023-02-28T09:40:52;5.90;92.90
42019;DHT22;27703;51.980;5.848;2023-02-28T09:43:21;6.00;92.60
42019;DHT22;27703;51.980;5.848;2023-02-28T09:46:00;6.10;92.80
42019;DHT22;27703;51.980;5.848;2023-02-28T09:48:35;6.20;92.80
42019;DHT22;27703;51.980;5.848;2023-02-28T09:51:50;6.30;92.50
42019;DHT22;27703;51.980;5.848;2023-02-28T09:53:50;6.30;92.00
42019;DHT22;27703;51.980;5.848;2023-02-28T09:56:24;6.40;91.70
42019;DHT22;27703;51.980;5.848;2023-02-28T10:08:01;6.50;91.00
42019;DHT22;27703;51.980;5.848;2023-02-28T10:10:02;6.60;90.70
42019;DHT22;27703;51.980;5.848;2023-02-28T10:12:31;6.60;90.20
42019;DHT22;27703;51.980;5.848;2023-02-28T10:14:59;6.60;90.60
42019;DHT22;27703;51.980;5.848;2023-02-28T10:17:38;6.70;90.20
42019;DHT22;27703;51.980;5.848;2023-02-28T10:20:14;6.80;90.20
42019;DHT22;27703;51.980;5.848;2023-02-28T10:25:39;6.80;87.60
42019;DHT22;27703;51.980;5.848;2023-02-28T10:28:09;6.90;89.00
42019;DHT22;27703;51.980;5.848;2023-02-28T10:30:39;6.90;88.50
42019;DHT22;27703;51.980;5.848;2023-02-28T10:33:05;7.00;87.60
42019;DHT22;27703;51.980;5.848;2023-02-28T10:35:30;7.00;87.30
42019;DHT22;27703;51.980;5.848;2023-02-28T10:38:00;7.10;88.20
42019;DHT22;27703;51.980;5.848;2023-02-28T10:40:34;7.20;87.70
42019;DHT22;27703;51.980;5.848;2023-02-28T10:43:19;7.20;86.20
42019;DHT22;27703;51.980;5.848;2023-02-28T10:51:01;7.10;85.30
42019;DHT22;27703;51.980;5.848;2023-02-28T10:58:56;7.20;84.10
42019;DHT22;27703;51.980;5.848;2023-02-28T11:01:36;7.20;84.30
42019;DHT22;27703;51.980;5.848;2023-02-28T11:06:45;7.40;84.50
42019;DHT22;27703;51.980;5.848;2023-02-28T11:09:24;7.50;84.50
42019;DHT22;27703;51.980;5.848;2023-02-28T11:11:52;7.60;84.00
42019;DHT22;27703;51.980;5.848;2023-02-28T11:16:49;7.80;86.40
42019;DHT22;27703;51.980;5.848;2023-02-28T11:19:28;7.90;86.70
42019;DHT22;27703;51.980;5.848;2023-02-28T11:21:57;7.90;86.30
42019;DHT22;27703;51.980;5.848;2023-02-28T11:24:31;7.90;85.30
42019;DHT22;27703;51.980;5.848;2023-02-28T11:26:58;7.90;84.10
42019;DHT22;27703;51.980;5.848;2023-02-28T11:29:27;7.90;84.70
42019;DHT22;27703;51.980;5.848;2023-02-28T11:34:37;7.90;85.60
42019;DHT22;27703;51.980;5.848;2023-02-28T11:37:05;7.90;85.90
42019;DHT22;27703;51.980;5.848;2023-02-28T11:39:33;7.80;86.10
42019;DHT22;27703;51.980;5.848;2023-02-28T11:52:55;8.30;83.20
42019;DHT22;27703;51.980;5.848;2023-02-28T12:01:28;8.40;82.20
42019;DHT22;27703;51.980;5.848;2023-02-28T12:07:35;8.50;81.10
42019;DHT22;27703;51.980;5.848;2023-02-28T12:13:04;8.70;80.70
42019;DHT22;27703;51.980;5.848;2023-02-28T12:15:51;8.80;80.00
42019;DHT22;27703;51.980;5.848;2023-02-28T12:21:49;8.60;79.00
42019;DHT22;27703;51.980;5.848;2023-02-28T12:27:12;8.70;81.40
42019;DHT22;27703;51.980;5.848;2023-02-28T12:33:13;8.70;81.90
42019;DHT22;27703;51.980;5.848;2023-02-28T12:35:55;8.70;83.90
42019;DHT22;27703;51.980;5.848;2023-02-28T12:38:22;8.70;83.10
42019;DHT22;27703;51.980;5.848;2023-02-28T12:41:04;8.70;84.20
42019;DHT22;27703;51.980;5.848;2023-02-28T12:43:37;8.70;84.10
42019;DHT22;27703;51.980;5.848;2023-02-28T12:46:21;8.70;84.20
42019;DHT22;27703;51.980;5.848;2023-02-28T12:48:55;8.70;81.60
42019;DHT22;27703;51.980;5.848;2023-02-28T12:51:22;8.80;80.60
42019;DHT22;27703;51.980;5.848;2023-02-28T12:53:53;8.80;81.70
42019;DHT22;27703;51.980;5.848;2023-02-28T12:56:48;8.90;80.80
42019;DHT22;27703;51.980;5.848;2023-02-28T12:59:37;8.90;81.80
42019;DHT22;27703;51.980;5.848;2023-02-28T13:02:41;8.90;82.80
42019;DHT22;27703;51.980;5.848;2023-02-28T13:10:44;8.90;78.00
42019;DHT22;27703;51.980;5.848;2023-02-28T13:13:18;8.80;79.90
42019;DHT22;27703;51.980;5.848;2023-02-28T13:16:02;8.80;80.50
42019;DHT22;27703;51.980;5.848;2023-02-28T13:18:32;8.90;80.70
42019;DHT22;27703;51.980;5.848;2023-02-28T13:20:58;9.10;78.70
42019;DHT22;27703;51.980;5.848;2023-02-28T13:26:12;9.40;75.50
42019;DHT22;27703;51.980;5.848;2023-02-28T13:31:24;9.50;79.30
42019;DHT22;27703;51.980;5.848;2023-02-28T13:36:32;9.50;80.00
42019;DHT22;27703;51.980;5.848;2023-02-28T13:39:03;9.50;79.40
42019;DHT22;27703;51.980;5.848;2023-02-28T13:49:26;9.40;80.50
42019;DHT22;27703;51.980;5.848;2023-02-28T13:55:11;9.50;78.70
42019;DHT22;27703;51.980;5.848;2023-02-28T13:57:59;9.60;80.20
42019;DHT22;27703;51.980;5.848;2023-02-28T14:06:15;9.70;77.60
42019;DHT22;27703;51.980;5.848;2023-02-28T14:11:39;9.80;79.80
42019;DHT22;27703;51.980;5.848;2023-02-28T14:14:07;9.80;79.00
42019;DHT22;27703;51.980;5.848;2023-02-28T14:16:42;9.70;77.50
42019;DHT22;27703;51.980;5.848;2023-02-28T14:21:43;9.60;76.80
42019;DHT22;27703;51.980;5.848;2023-02-28T14:32:30;9.40;79.30
42019;DHT22;27703;51.980;5.848;2023-02-28T14:37:38;9.30;81.50
42019;DHT22;27703;51.980;5.848;2023-02-28T14:40:11;9.30;79.40
42019;DHT22;27703;51.980;5.848;2023-02-28T14:42:37;9.30;78.00
42019;DHT22;27703;51.980;5.848;2023-02-28T14:45:03;9.30;80.70
42019;DHT22;27703;51.980;5.848;2023-02-28T14:47:33;9.30;81.70
42019;DHT22;27703;51.980;5.848;2023-02-28T14:50:01;9.30;84.50
42019;DHT22;27703;51.980;5.848;2023-02-28T14:52:31;9.30;83.30
42019;DHT22;27703;51.980;5.848;2023-02-28T14:55:00;9.40;82.00
42019;DHT22;27703;51.980;5.848;2023-02-28T14:57:28;9.40;79.50
42019;DHT22;27703;51.980;5.848;2023-02-28T15:00:23;9.30;78.40
42019;DHT22;27703;51.980;5.848;2023-02-28T15:02:46;9.20;79.00
42019;DHT22;27703;51.980;5.848;2023-02-28T15:07:47;9.10;83.10
42019;DHT22;27703;51.980;5.848;2023-02-28T15:10:21;9.10;83.60
42019;DHT22;27703;51.980;5.848;2023-02-28T15:12:54;9.20;83.30
42019;DHT22;27703;51.980;5.848;2023-02-28T15:15:23;9.20;82.40
42019;DHT22;27703;51.980;5.848;2023-02-28T15:17:53;9.20;80.70
42019;DHT22;27703;51.980;5.848;2023-02-28T15:20:20;9.30;81.80
42019;DHT22;27703;51.980;5.848;2023-02-28T15:22:47;9.30;82.80
42019;DHT22;27703;51.980;5.848;2023-02-28T15:25:18;9.20;81.10
42019;DHT22;27703;51.980;5.848;2023-02-28T15:27:51;9.20;80.90
42019;DHT22;27703;51.980;5.848;2023-02-28T15:32:45;9.20;79.70
42019;DHT22;27703;51.980;5.848;2023-02-28T15:35:29;9.20;79.70
42019;DHT22;27703;51.980;5.848;2023-02-28T15:37:56;9.20;80.80
42019;DHT22;27703;51.980;5.848;2023-02-28T15:40:28;9.20;80.00
42019;DHT22;27703;51.980;5.848;2023-02-28T15:48:18;9.00;81.60
42019;DHT22;27703;51.980;5.848;2023-02-28T15:51:12;8.90;82.40
42019;DHT22;27703;51.980;5.848;2023-02-28T15:56:32;8.80;82.50
42019;DHT22;27703;51.980;5.848;2023-02-28T15:59:05;8.80;82.50
42019;DHT22;27703;51.980;5.848;2023-02-28T16:01:35;8.80;82.20
42019;DHT22;27703;51.980;5.848;2023-02-28T16:04:05;8.70;80.70
42019;DHT22;27703;51.980;5.848;2023-02-28T16:06:35;8.70;81.10
42019;DHT22;27703;51.980;5.848;2023-02-28T16:09:01;8.70;79.90
42019;DHT22;27703;51.980;5.848;2023-02-28T16:11:27;8.60;80.70
42019;DHT22;27703;51.980;5.848;2023-02-28T16:13:53;8.50;81.20
42019;DHT22;27703;51.980;5.848;2023-02-28T16:16:21;8.50;82.50
42019;DHT22;27703;51.980;5.848;2023-02-28T16:18:48;8.50;82.50
42019;DHT22;27703;51.980;5.848;2023-02-28T16:21:13;8.50;82.70
42019;DHT22;27703;51.980;5.848;2023-02-28T16:23:39;8.40;82.10
42019;DHT22;27703;51.980;5.848;2023-02-28T16:26:05;8.40;82.60
42019;DHT22;27703;51.980;5.848;2023-02-28T16:28:34;8.30;83.10
42019;DHT22;27703;51.980;5.848;2023-02-28T16:31:02;8.20;84.90
42019;DHT22;27703;51.980;5.848;2023-02-28T16:33:28;8.10;86.20
42019;DHT22;27703;51.980;5.848;2023-02-28T16:35:54;8.10;86.40
42019;DHT22;27703;51.980;5.848;2023-02-28T16:38:19;8.00;86.40
42019;DHT22;27703;51.980;5.848;2023-02-28T16:40:45;7.90;86.50
42019;DHT22;27703;51.980;5.848;2023-02-28T16:43:18;7.90;87.20
42019;DHT22;27703;51.980;5.848;2023-02-28T16:45:44;7.80;86.00
42019;DHT22;27703;51.980;5.848;2023-02-28T16:48:16;7.70;86.40
42019;DHT22;27703;51.980;5.848;2023-02-28T16:50:42;7.60;86.40
42019;DHT22;27703;51.980;5.848;2023-02-28T16:53:10;7.60;87.90
42019;DHT22;27703;51.980;5.848;2023-02-28T16:55:35;7.40;89.10
42019;DHT22;27703;51.980;5.848;2023-02-28T16:58:02;7.40;89.20
42019;DHT22;27703;51.980;5.848;2023-02-28T17:00:30;7.40;89.10
42019;DHT22;27703;51.980;5.848;2023-02-28T17:02:57;7.40;88.80
42019;DHT22;27703;51.980;5.848;2023-02-28T17:05:24;7.40;88.90
42019;DHT22;27703;51.980;5.848;2023-02-28T17:07:50;7.30;88.60
42019;DHT22;27703;51.980;5.848;2023-02-28T17:12:45;7.30;88.30
42019;DHT22;27703;51.980;5.848;2023-02-28T17:15:12;7.20;87.80
42019;DHT22;27703;51.980;5.848;2023-02-28T17:17:39;7.20;87.80
42019;DHT22;27703;51.980;5.848;2023-02-28T17:20:05;7.10;87.50
42019;DHT22;27703;51.980;5.848;2023-02-28T17:22:31;7.10;87.40
42019;DHT22;27703;51.980;5.848;2023-02-28T17:24:57;7.10;87.50
42019;DHT22;27703;51.980;5.848;2023-02-28T17:27:24;7.00;87.60
42019;DHT22;27703;51.980;5.848;2023-02-28T17:29:50;7.00;87.80
42019;DHT22;27703;51.980;5.848;2023-02-28T17:32:16;6.90;87.60
42019;DHT22;27703;51.980;5.848;2023-02-28T17:34:41;6.80;87.50
42019;DHT22;27703;51.980;5.848;2023-02-28T17:37:09;6.80;87.70
42019;DHT22;27703;51.980;5.848;2023-02-28T17:39:34;6.70;87.70
42019;DHT22;27703;51.980;5.848;2023-02-28T17:42:00;6.60;87.70
42019;DHT22;27703;51.980;5.848;2023-02-28T17:44:25;6.60;87.70
42019;DHT22;27703;51.980;5.848;2023-02-28T17:46:53;6.60;87.80
42019;DHT22;27703;51.980;5.848;2023-02-28T17:49:19;6.60;87.70
42019;DHT22;27703;51.980;5.848;2023-02-28T17:51:45;6.50;87.80
42019;DHT22;27703;51.980;5.848;2023-02-28T17:54:11;6.50;88.00
42019;DHT22;27703;51.980;5.848;2023-02-28T17:56:39;6.40;87.70
42019;DHT22;27703;51.980;5.848;2023-02-28T17:59:04;6.40;88.10
42019;DHT22;27703;51.980;5.848;2023-02-28T18:01:30;6.40;87.90
42019;DHT22;27703;51.980;5.848;2023-02-28T18:03:57;6.30;88.00
42019;DHT22;27703;51.980;5.848;2023-02-28T18:06:25;6.30;88.00
42019;DHT22;27703;51.980;5.848;2023-02-28T18:08:53;6.30;89.00
42019;DHT22;27703;51.980;5.848;2023-02-28T18:11:20;6.30;88.90
42019;DHT22;27703;51.980;5.848;2023-02-28T18:13:48;6.30;89.10
42019;DHT22;27703;51.980;5.848;2023-02-28T18:16:14;6.20;88.80
42019;DHT22;27703;51.980;5.848;2023-02-28T18:18:41;6.20;89.60
42019;DHT22;27703;51.980;5.848;2023-02-28T18:21:09;6.20;89.50
42019;DHT22;27703;51.980;5.848;2023-02-28T18:23:35;6.20;89.50
42019;DHT22;27703;51.980;5.848;2023-02-28T18:26:01;6.10;89.30
42019;DHT22;27703;51.980;5.848;2023-02-28T18:28:30;6.10;89.00
42019;DHT22;27703;51.980;5.848;2023-02-28T18:31:05;6.10;88.70
42019;DHT22;27703;51.980;5.848;2023-02-28T18:33:30;6.10;88.60